Time;durP1;ratioP1;P1;durP2;ratioP2;P2;SDS_P1;SDS_P2;PMS_P1;PMS_P2;Temp;Humidity;BMP_temperature;BMP_pressure;BME280_temperature;BME280_humidity;BME280_pressure;Samples;Min_cycle;Max_cycle;Signal;HPM_P1;HPM_P2
2021/09/07 00:02:15;;;;;;;20.92;12.82;;;;;;;;;;5034562;28;20087;-76
2021/09/07 00:04:40;;;;;;;19.25;12.90;;;;;;;;;;5018401;28;20435;-76
2021/09/07 00:07:05;;;;;;;16.10;12.40;;;;;;;;;;5034822;28;20491;-76
2021/09/07 00:09:31;;;;;;;19.50;12.13;;;;;;;;;;5035403;28;20037;-76
2021/09/07 00:11:58;;;;;;;17.42;12.38;;;;;;;;;;5019262;28;20387;-76
2021/09/07 00:14:24;;;;;;;16.63;12.32;;;;;;;;;;5055585;28;20514;-76
2021/09/07 00:16:50;;;;;;;19.17;11.65;;;;;;;;;;5037889;28;20048;-76
2021/09/07 00:19:17;;;;;;;17.33;11.85;;;;;;;;;;5055891;28;20033;-76
2021/09/07 00:21:42;;;;;;;19.77;12.18;;;;;;;;;;5055974;28;20168;-76
2021/09/07 00:24:08;;;;;;;20.27;11.57;;;;;;;;;;5054866;28;20037;-76
2021/09/07 00:26:33;;;;;;;18.67;12.57;;;;;;;;;;5055815;28;20032;-76
2021/09/07 00:28:59;;;;;;;20.00;11.77;;;;;;;;;;5054022;28;20399;-76
2021/09/07 00:31:25;;;;;;;20.13;11.98;;;;;;;;;;5037586;28;20112;-76
2021/09/07 00:33:50;;;;;;;18.35;11.40;;;;;;;;;;5037542;28;20082;-76
2021/09/07 00:36:16;;;;;;;16.65;12.38;;;;;;;;;;5054310;28;20067;-76
2021/09/07 00:38:42;;;;;;;15.75;11.88;;;;;;;;;;5030748;28;20029;-76
2021/09/07 00:41:07;;;;;;;16.95;12.15;;;;;;;;;;5035527;28;20037;-76
2021/09/07 00:43:34;;;;;;;17.35;11.85;;;;;;;;;;5043130;28;20474;-76
2021/09/07 00:45:59;;;;;;;23.08;13.90;;;;;;;;;;5057172;28;20052;-76
2021/09/07 00:48:24;;;;;;;16.55;12.45;;;;;;;;;;5073937;28;20121;-76
2021/09/07 00:50:50;;;;;;;18.67;12.43;;;;;;;;;;5073792;28;20040;-76
2021/09/07 00:53:16;;;;;;;20.95;12.45;;;;;;;;;;5057415;28;20040;-76
2021/09/07 00:55:45;;;;;;;24.25;13.23;;;;;;;;;;5073760;28;20124;-76
2021/09/07 00:58:14;;;;;;;19.13;12.02;;;;;;;;;;5073758;28;20041;-76
2021/09/07 01:00:42;;;;;;;16.00;12.88;;;;;;;;;;5073906;28;20111;-76
2021/09/07 01:03:09;;;;;;;18.35;11.80;;;;;;;;;;5073533;28;20059;-76
2021/09/07 01:05:35;;;;;;;15.73;12.32;;;;;;;;;;5075037;28;20028;-76
2021/09/07 01:08:03;;;;;;;19.23;13.00;;;;;;;;;;5073481;28;20032;-76
2021/09/07 01:10:30;;;;;;;18.63;11.75;;;;;;;;;;5057370;28;20390;-76
2021/09/07 01:12:56;;;;;;;14.23;11.10;;;;;;;;;;5057051;28;20028;-76
2021/09/07 01:15:22;;;;;;;15.18;11.60;;;;;;;;;;5053798;28;20033;-76
2021/09/07 01:17:48;;;;;;;15.05;11.20;;;;;;;;;;5053594;28;20067;-76
2021/09/07 01:20:15;;;;;;;17.92;12.20;;;;;;;;;;5053347;28;20491;-76
2021/09/07 01:22:40;;;;;;;21.20;12.27;;;;;;;;;;5054635;28;20058;-76
2021/09/07 01:25:06;;;;;;;24.27;11.98;;;;;;;;;;5053472;28;20120;-76
2021/09/07 01:27:32;;;;;;;20.90;12.90;;;;;;;;;;5036598;28;20082;-76
2021/09/07 01:29:57;;;;;;;24.40;12.55;;;;;;;;;;5036041;28;20505;-76
2021/09/07 01:32:25;;;;;;;15.43;12.13;;;;;;;;;;5053288;28;20090;-76
2021/09/07 01:34:51;;;;;;;16.73;11.40;;;;;;;;;;5036302;28;20107;-76
2021/09/07 01:37:16;;;;;;;17.08;12.65;;;;;;;;;;5052006;28;20431;-76
2021/09/07 01:39:42;;;;;;;15.38;12.05;;;;;;;;;;5058174;28;20032;-76
2021/09/07 01:42:08;;;;;;;16.73;11.88;;;;;;;;;;5056134;28;20040;-76
2021/09/07 01:44:34;;;;;;;15.35;11.43;;;;;;;;;;5073009;28;20024;-76
2021/09/07 01:47:00;;;;;;;15.55;11.85;;;;;;;;;;5045227;28;20087;-76
2021/09/07 01:49:25;;;;;;;17.20;11.63;;;;;;;;;;5053916;28;20041;-76
2021/09/07 01:51:51;;;;;;;17.08;12.25;;;;;;;;;;5052813;28;20037;-76
2021/09/07 01:54:17;;;;;;;20.27;11.77;;;;;;;;;;5035704;28;20407;-76
2021/09/07 01:56:43;;;;;;;15.88;12.45;;;;;;;;;;5036084;28;20071;-76
2021/09/07 01:59:09;;;;;;;18.27;12.35;;;;;;;;;;5052229;28;20458;-76
2021/09/07 02:01:35;;;;;;;16.00;11.30;;;;;;;;;;5036093;28;20064;-76
2021/09/07 02:04:01;;;;;;;21.02;13.13;;;;;;;;;;5052368;28;20029;-76
2021/09/07 02:06:30;;;;;;;19.27;12.50;;;;;;;;;;5036386;28;20036;-76
2021/09/07 02:08:55;;;;;;;19.77;12.07;;;;;;;;;;5054220;28;20036;-76
2021/09/07 02:11:21;;;;;;;17.02;11.35;;;;;;;;;;5055670;28;20379;-76
2021/09/07 02:13:46;;;;;;;17.27;12.13;;;;;;;;;;5073449;28;20162;-75
2021/09/07 02:16:12;;;;;;;26.42;13.35;;;;;;;;;;5073728;28;20089;-77
2021/09/07 02:18:39;;;;;;;17.30;11.55;;;;;;;;;;5056839;28;20043;-77
2021/09/07 02:21:04;;;;;;;15.63;11.23;;;;;;;;;;5072220;28;20402;-75
2021/09/07 02:23:30;;;;;;;14.75;10.77;;;;;;;;;;5055345;28;20119;-76
2021/09/07 02:25:56;;;;;;;14.75;10.68;;;;;;;;;;5073796;28;20028;-75
2021/09/07 02:28:23;;;;;;;20.23;10.27;;;;;;;;;;5072190;28;20347;-75
2021/09/07 02:30:52;;;;;;;12.73;10.43;;;;;;;;;;5064781;28;20519;-75
2021/09/07 02:33:18;;;;;;;17.67;11.98;;;;;;;;;;5052794;28;20084;-75
2021/09/07 02:35:43;;;;;;;15.00;11.48;;;;;;;;;;5053252;28;20063;-75
2021/09/07 02:38:10;;;;;;;15.10;10.85;;;;;;;;;;5052235;28;20029;-75
2021/09/07 02:40:36;;;;;;;13.48;10.43;;;;;;;;;;5053138;28;20044;-75
2021/09/07 02:43:02;;;;;;;13.23;9.65;;;;;;;;;;5052031;28;20453;-75
2021/09/07 02:45:27;;;;;;;15.13;10.07;;;;;;;;;;5053150;28;20070;-75
2021/09/07 02:47:54;;;;;;;15.05;9.68;;;;;;;;;;5038513;28;20446;-76
2021/09/07 02:50:20;;;;;;;19.73;10.70;;;;;;;;;;5059984;28;20060;-78
2021/09/07 02:52:46;;;;;;;13.07;10.23;;;;;;;;;;5061429;28;20029;-77
2021/09/07 02:55:13;;;;;;;14.13;10.48;;;;;;;;;;5042452;28;20038;-76
2021/09/07 02:57:39;;;;;;;18.20;11.73;;;;;;;;;;5041589;28;20024;-76
2021/09/07 03:00:05;;;;;;;17.23;10.95;;;;;;;;;;5059214;28;20411;-76
2021/09/07 03:02:32;;;;;;;11.82;8.90;;;;;;;;;;5041806;28;20029;-76
2021/09/07 03:04:59;;;;;;;12.00;8.65;;;;;;;;;;5042567;28;20403;-78
2021/09/07 03:07:26;;;;;;;14.27;10.45;;;;;;;;;;5061031;28;20029;-78
2021/09/07 03:09:53;;;;;;;16.48;11.60;;;;;;;;;;5078634;28;20036;-77
2021/09/07 03:12:20;;;;;;;12.07;9.18;;;;;;;;;;5064609;28;20035;-78
2021/09/07 03:14:46;;;;;;;12.77;9.57;;;;;;;;;;5081608;28;20036;-78
2021/09/07 03:17:12;;;;;;;12.80;8.57;;;;;;;;;;5064050;28;20032;-78
2021/09/07 03:19:40;;;;;;;13.13;9.68;;;;;;;;;;5081573;28;20433;-78
2021/09/07 03:22:06;;;;;;;14.73;11.10;;;;;;;;;;5064579;28;20036;-78
2021/09/07 03:24:32;;;;;;;17.83;11.02;;;;;;;;;;5081900;28;20032;-78
2021/09/07 03:26:58;;;;;;;17.05;10.20;;;;;;;;;;5082590;28;20099;-78
2021/09/07 03:29:23;;;;;;;12.75;9.70;;;;;;;;;;5083317;28;20079;-77
2021/09/07 03:31:50;;;;;;;12.35;9.70;;;;;;;;;;5084026;28;20024;-78
2021/09/07 03:34:16;;;;;;;14.35;9.50;;;;;;;;;;5067358;28;20041;-78
2021/09/07 03:36:42;;;;;;;15.02;9.70;;;;;;;;;;5081965;28;20039;-78
2021/09/07 03:39:08;;;;;;;16.75;10.02;;;;;;;;;;5051665;28;20087;-78
2021/09/07 03:41:34;;;;;;;14.10;9.77;;;;;;;;;;5041821;28;20025;-78
2021/09/07 03:44:00;;;;;;;14.10;9.70;;;;;;;;;;5041205;28;20454;-78
2021/09/07 03:46:26;;;;;;;16.15;9.38;;;;;;;;;;5041992;28;20053;-78
2021/09/07 03:48:52;;;;;;;16.35;10.05;;;;;;;;;;5041511;28;20036;-78
2021/09/07 03:51:19;;;;;;;19.42;10.15;;;;;;;;;;5024977;28;20395;-78
2021/09/07 03:53:47;;;;;;;18.98;10.07;;;;;;;;;;5041266;28;20025;-78
2021/09/07 03:56:16;;;;;;;15.23;10.38;;;;;;;;;;5042417;28;20036;-77
2021/09/07 03:58:44;;;;;;;12.98;9.80;;;;;;;;;;5041266;28;20547;-78
2021/09/07 04:01:10;;;;;;;20.83;10.57;;;;;;;;;;5070550;28;20040;-77
2021/09/07 04:03:36;;;;;;;12.43;9.18;;;;;;;;;;5079357;28;20036;-78
2021/09/07 04:06:01;;;;;;;15.80;9.77;;;;;;;;;;5078564;28;20032;-78
2021/09/07 04:08:27;;;;;;;17.17;9.18;;;;;;;;;;5061349;28;20036;-78
2021/09/07 04:10:53;;;;;;;13.55;8.65;;;;;;;;;;5051028;28;20033;-78
2021/09/07 04:13:19;;;;;;;12.98;8.82;;;;;;;;;;5021061;28;20064;-78
2021/09/07 04:15:44;;;;;;;14.65;9.02;;;;;;;;;;5021239;28;20376;-77
2021/09/07 04:18:11;;;;;;;13.52;8.60;;;;;;;;;;5021347;28;20037;-77
2021/09/07 04:20:38;;;;;;;11.70;8.13;;;;;;;;;;5037509;28;20435;-78
2021/09/07 04:23:04;;;;;;;9.40;7.45;;;;;;;;;;5020818;28;20034;-77
2021/09/07 04:25:30;;;;;;;19.42;9.07;;;;;;;;;;5038608;28;20562;-77
2021/09/07 04:27:56;;;;;;;11.80;8.48;;;;;;;;;;5038494;28;20064;-77
2021/09/07 04:30:21;;;;;;;16.10;9.20;;;;;;;;;;5037321;28;20028;-77
2021/09/07 04:32:48;;;;;;;11.57;8.82;;;;;;;;;;5021367;28;20049;-78
2021/09/07 04:35:13;;;;;;;15.10;9.63;;;;;;;;;;5021376;28;20033;-78
2021/09/07 04:37:39;;;;;;;13.88;9.38;;;;;;;;;;5037752;28;20033;-78
2021/09/07 04:40:05;;;;;;;17.63;9.02;;;;;;;;;;5021284;28;20380;-77
2021/09/07 04:42:31;;;;;;;12.27;9.15;;;;;;;;;;5021267;28;20071;-78
2021/09/07 04:44:57;;;;;;;20.23;9.23;;;;;;;;;;5020969;28;20034;-78
2021/09/07 04:47:23;;;;;;;11.65;7.75;;;;;;;;;;5037212;28;20051;-78
2021/09/07 04:49:49;;;;;;;12.02;8.45;;;;;;;;;;5037033;28;20426;-78
2021/09/07 04:52:15;;;;;;;13.68;7.95;;;;;;;;;;5037068;28;20087;-78
2021/09/07 04:54:40;;;;;;;13.05;8.40;;;;;;;;;;5038744;28;20034;-78
2021/09/07 04:57:06;;;;;;;16.00;9.18;;;;;;;;;;5039016;28;20099;-78
2021/09/07 04:59:31;;;;;;;15.60;9.10;;;;;;;;;;5038479;28;20137;-78
2021/09/07 05:01:57;;;;;;;11.57;9.00;;;;;;;;;;5037442;28;20029;-78
2021/09/07 05:04:22;;;;;;;14.98;8.77;;;;;;;;;;5021368;28;20128;-78
2021/09/07 05:06:48;;;;;;;16.33;8.23;;;;;;;;;;5036508;28;20411;-78
2021/09/07 05:09:13;;;;;;;17.45;9.20;;;;;;;;;;5037113;28;20037;-78
2021/09/07 05:11:39;;;;;;;13.93;8.45;;;;;;;;;;5020602;28;20537;-78
2021/09/07 05:14:06;;;;;;;18.13;7.90;;;;;;;;;;5036958;28;20119;-77
2021/09/07 05:16:32;;;;;;;16.02;8.27;;;;;;;;;;5019590;28;20036;-77
2021/09/07 05:18:57;;;;;;;13.57;7.47;;;;;;;;;;5036147;28;20045;-78
2021/09/07 05:21:23;;;;;;;11.07;7.47;;;;;;;;;;5019642;28;20446;-78
2021/09/07 05:23:48;;;;;;;13.23;8.63;;;;;;;;;;5036173;28;20037;-77
2021/09/07 05:26:14;;;;;;;13.77;8.02;;;;;;;;;;5036599;28;20404;-78
2021/09/07 05:28:39;;;;;;;13.45;8.20;;;;;;;;;;5020389;28;20082;-78
2021/09/07 05:31:04;;;;;;;15.13;7.90;;;;;;;;;;5036885;28;20044;-78
2021/09/07 05:33:30;;;;;;;10.38;7.65;;;;;;;;;;5020648;28;20045;-78
2021/09/07 05:35:56;;;;;;;11.38;7.97;;;;;;;;;;5020307;28;20045;-78
2021/09/07 05:38:21;;;;;;;11.88;7.57;;;;;;;;;;5036878;28;20046;-78
2021/09/07 05:40:47;;;;;;;10.65;7.38;;;;;;;;;;5037268;28;20444;-78
2021/09/07 05:43:13;;;;;;;12.15;7.75;;;;;;;;;;5036775;28;20033;-78
2021/09/07 05:45:39;;;;;;;13.15;7.65;;;;;;;;;;5035525;28;20038;-78
2021/09/07 05:48:05;;;;;;;13.68;8.05;;;;;;;;;;5019981;28;20403;-78
2021/09/07 05:50:30;;;;;;;12.25;8.32;;;;;;;;;;5036459;28;20033;-78
2021/09/07 05:52:56;;;;;;;13.43;8.65;;;;;;;;;;5035033;28;20395;-78
2021/09/07 05:55:21;;;;;;;23.70;9.75;;;;;;;;;;5036645;28;20395;-78
2021/09/07 05:57:48;;;;;;;15.35;10.13;;;;;;;;;;5019201;28;20127;-78
2021/09/07 06:00:14;;;;;;;14.32;10.65;;;;;;;;;;5035725;28;20075;-78
2021/09/07 06:02:41;;;;;;;15.70;10.45;;;;;;;;;;5035879;28;20403;-78
2021/09/07 06:05:08;;;;;;;13.98;11.38;;;;;;;;;;5018649;28;20042;-78
2021/09/07 06:07:33;;;;;;;15.38;10.82;;;;;;;;;;5019401;28;20033;-78
2021/09/07 06:09:59;;;;;;;15.10;11.52;;;;;;;;;;5035598;28;20483;-78
2021/09/07 06:12:25;;;;;;;14.35;11.07;;;;;;;;;;5035758;28;20037;-78
2021/09/07 06:14:51;;;;;;;23.20;11.85;;;;;;;;;;5035901;28;20531;-78
2021/09/07 06:17:17;;;;;;;14.45;10.40;;;;;;;;;;5019070;28;20033;-78
2021/09/07 06:19:43;;;;;;;14.15;10.88;;;;;;;;;;5019719;28;20087;-78
2021/09/07 06:22:09;;;;;;;16.80;11.07;;;;;;;;;;5035731;28;20507;-78
2021/09/07 06:24:34;;;;;;;12.43;9.98;;;;;;;;;;5036247;28;20499;-78
2021/09/07 06:27:00;;;;;;;16.33;9.68;;;;;;;;;;5036252;28;20527;-78
2021/09/07 06:29:25;;;;;;;14.73;10.43;;;;;;;;;;5019338;28;20048;-78
2021/09/07 06:31:51;;;;;;;12.75;9.98;;;;;;;;;;5019934;28;20034;-78
2021/09/07 06:34:17;;;;;;;16.60;9.55;;;;;;;;;;5019036;28;20051;-78
2021/09/07 06:36:43;;;;;;;13.95;10.57;;;;;;;;;;5035572;28;20048;-78
2021/09/07 06:39:09;;;;;;;17.13;10.23;;;;;;;;;;5027356;28;20029;-78
2021/09/07 06:41:35;;;;;;;16.92;9.95;;;;;;;;;;5034841;28;20045;-78
2021/09/07 06:44:00;;;;;;;15.75;10.20;;;;;;;;;;5036083;28;20032;-78
2021/09/07 06:46:26;;;;;;;16.70;9.77;;;;;;;;;;5036387;28;20049;-78
2021/09/07 06:48:52;;;;;;;12.40;9.60;;;;;;;;;;5036085;28;20750;-78
2021/09/07 06:51:17;;;;;;;23.33;9.93;;;;;;;;;;5036607;28;20159;-78
2021/09/07 06:53:43;;;;;;;17.45;10.50;;;;;;;;;;5037871;28;20068;-78
2021/09/07 06:56:08;;;;;;;13.43;10.70;;;;;;;;;;5036180;28;20037;-78
2021/09/07 06:58:34;;;;;;;11.93;9.60;;;;;;;;;;5017792;28;20484;-76
2021/09/07 07:00:59;;;;;;;16.75;9.77;;;;;;;;;;5034288;28;20041;-78
2021/09/07 07:03:25;;;;;;;15.00;9.00;;;;;;;;;;5036699;28;20033;-77
2021/09/07 07:05:52;;;;;;;15.15;9.88;;;;;;;;;;5033927;28;20037;-79
2021/09/07 07:08:17;;;;;;;12.93;9.95;;;;;;;;;;5043210;28;20091;-76
2021/09/07 07:10:43;;;;;;;14.45;8.80;;;;;;;;;;5035261;28;20040;-77
2021/09/07 07:13:08;;;;;;;28.67;9.88;;;;;;;;;;5052018;28;20029;-76
2021/09/07 07:15:34;;;;;;;13.45;9.82;;;;;;;;;;5052293;28;20037;-77
2021/09/07 07:18:00;;;;;;;12.30;8.57;;;;;;;;;;5053645;28;20502;-77
2021/09/07 07:20:25;;;;;;;12.18;8.50;;;;;;;;;;5067536;28;20119;-78
2021/09/07 07:22:52;;;;;;;11.07;8.07;;;;;;;;;;5070795;28;20037;-78
2021/09/07 07:25:18;;;;;;;12.18;8.52;;;;;;;;;;5062299;28;20033;-78
2021/09/07 07:27:43;;;;;;;11.85;9.18;;;;;;;;;;5038555;28;20039;-77
2021/09/07 07:30:10;;;;;;;11.10;8.60;;;;;;;;;;5034885;28;20041;-77
2021/09/07 07:32:36;;;;;;;10.38;8.18;;;;;;;;;;5053502;28;20037;-77
2021/09/07 07:35:02;;;;;;;10.30;8.18;;;;;;;;;;5056189;28;20056;-78
2021/09/07 07:37:28;;;;;;;13.93;8.45;;;;;;;;;;5038492;28;20095;-77
2021/09/07 07:39:53;;;;;;;23.52;9.57;;;;;;;;;;5019470;28;20033;-77
2021/09/07 07:42:19;;;;;;;14.50;10.73;;;;;;;;;;5052684;28;20059;-78
2021/09/07 07:44:45;;;;;;;17.13;9.40;;;;;;;;;;5059749;28;20040;-76
2021/09/07 07:47:10;;;;;;;10.77;8.02;;;;;;;;;;5056273;28;20548;-75
2021/09/07 07:49:38;;;;;;;13.63;8.63;;;;;;;;;;5055309;28;20047;-75
2021/09/07 07:52:03;;;;;;;11.10;8.80;;;;;;;;;;5038368;28;20036;-76
2021/09/07 07:54:29;;;;;;;12.82;8.60;;;;;;;;;;5056535;28;20055;-76
2021/09/07 07:56:54;;;;;;;12.55;8.68;;;;;;;;;;5056305;28;20033;-76
2021/09/07 07:59:20;;;;;;;55.42;13.50;;;;;;;;;;5056465;28;20047;-75
2021/09/07 08:01:45;;;;;;;44.22;13.63;;;;;;;;;;5055057;28;20041;-76
2021/09/07 08:04:10;;;;;;;22.92;10.45;;;;;;;;;;5054831;28;20066;-76
2021/09/07 08:06:37;;;;;;;49.83;13.75;;;;;;;;;;5056369;28;20033;-76
2021/09/07 08:09:03;;;;;;;13.38;8.40;;;;;;;;;;5055254;28;20032;-76
2021/09/07 08:11:28;;;;;;;9.30;7.95;;;;;;;;;;5054511;28;20037;-76
2021/09/07 08:13:54;;;;;;;12.32;9.38;;;;;;;;;;5054417;28;20479;-76
2021/09/07 08:16:20;;;;;;;18.20;9.38;;;;;;;;;;5054589;28;20060;-76
2021/09/07 08:18:46;;;;;;;12.57;9.18;;;;;;;;;;5054642;28;20029;-76
2021/09/07 08:21:11;;;;;;;11.18;7.93;;;;;;;;;;5037959;28;20037;-76
2021/09/07 08:23:37;;;;;;;14.98;9.35;;;;;;;;;;5037971;28;20441;-76
2021/09/07 08:26:02;;;;;;;8.60;7.32;;;;;;;;;;5054234;28;20124;-76
2021/09/07 08:28:27;;;;;;;50.08;10.82;;;;;;;;;;5054209;28;20098;-76
2021/09/07 08:30:53;;;;;;;33.45;9.43;;;;;;;;;;5054352;28;20040;-77
2021/09/07 08:33:18;;;;;;;11.63;7.00;;;;;;;;;;5037512;28;20037;-77
2021/09/07 08:35:45;;;;;;;11.07;6.85;;;;;;;;;;5053970;28;20049;-76
2021/09/07 08:38:11;;;;;;;13.85;7.47;;;;;;;;;;5055345;28;20041;-76
2021/09/07 08:40:38;;;;;;;21.10;8.18;;;;;;;;;;5055347;28;20024;-77
2021/09/07 08:43:07;;;;;;;12.98;6.80;;;;;;;;;;5054498;28;20414;-76
2021/09/07 08:45:33;;;;;;;14.07;7.70;;;;;;;;;;5037171;28;20135;-76
2021/09/07 08:48:00;;;;;;;12.13;7.03;;;;;;;;;;5054316;28;20075;-76
2021/09/07 08:50:26;;;;;;;9.00;7.03;;;;;;;;;;5037284;28;20127;-77
2021/09/07 08:52:59;;;;;;;10.18;7.50;;;;;;;;;;5055266;28;20056;-76
2021/09/07 08:55:29;;;;;;;17.83;12.73;;;;;;;;;;5055096;28;20037;-77
2021/09/07 08:57:55;;;;;;;31.17;21.77;;;;;;;;;;5037412;28;20033;-76
2021/09/07 09:00:26;;;;;;;12.02;8.27;;;;;;;;;;5054950;28;20497;-75
2021/09/07 09:02:51;;;;;;;10.10;8.10;;;;;;;;;;5037499;28;20390;-76
2021/09/07 09:05:25;;;;;;;12.45;8.20;;;;;;;;;;5054998;28;20032;-76
2021/09/07 09:07:50;;;;;;;12.32;7.78;;;;;;;;;;5053662;28;20033;-76
2021/09/07 09:10:20;;;;;;;16.75;7.93;;;;;;;;;;5053652;28;20352;-76
2021/09/07 09:12:46;;;;;;;508.75;36.45;;;;;;;;;;5036950;28;20024;-76
2021/09/07 09:15:17;;;;;;;23.58;8.45;;;;;;;;;;5036994;28;20043;-76
2021/09/07 09:17:42;;;;;;;11.68;7.28;;;;;;;;;;5052853;28;20037;-76
2021/09/07 09:20:17;;;;;;;12.15;7.45;;;;;;;;;;5053305;28;20049;-76
2021/09/07 09:22:44;;;;;;;13.63;7.75;;;;;;;;;;5054650;28;20048;-76
2021/09/07 09:25:19;;;;;;;11.20;7.05;;;;;;;;;;5053275;28;20037;-76
2021/09/07 09:28:17;;;;;;;12.30;6.82;;;;;;;;;;5053377;28;20040;-76
2021/09/07 09:30:44;;;;;;;9.77;6.25;;;;;;;;;;5053073;28;20367;-76
2021/09/07 09:33:12;;;;;;;16.00;6.72;;;;;;;;;;5053037;28;20510;-76
2021/09/07 09:35:48;;;;;;;19.15;7.85;;;;;;;;;;5054369;28;20490;-76
2021/09/07 09:38:13;;;;;;;14.25;8.27;;;;;;;;;;5054482;28;20041;-76
2021/09/07 09:40:39;;;;;;;9.63;6.22;;;;;;;;;;5052994;28;20043;-75
2021/09/07 09:43:24;;;;;;;18.30;7.10;;;;;;;;;;5053503;28;20123;-75
2021/09/07 09:45:50;;;;;;;29.00;5.88;;;;;;;;;;5052983;28;20072;-76
2021/09/07 09:48:27;;;;;;;8.05;5.28;;;;;;;;;;5052988;28;20060;-76
2021/09/07 09:50:54;;;;;;;7.65;5.50;;;;;;;;;;5052746;28;20044;-77
2021/09/07 09:53:21;;;;;;;11.73;5.85;;;;;;;;;;5052714;28;20043;-75
2021/09/07 09:55:48;;;;;;;12.02;5.68;;;;;;;;;;5053724;28;20091;-75
2021/09/07 09:58:17;;;;;;;7.65;5.15;;;;;;;;;;5035246;28;20071;-75
2021/09/07 10:00:46;;;;;;;9.68;5.13;;;;;;;;;;5053659;28;20067;-76
2021/09/07 10:03:13;;;;;;;15.95;4.90;;;;;;;;;;5054026;28;20040;-74
2021/09/07 10:05:44;;;;;;;6.20;4.82;;;;;;;;;;5052693;28;20041;-74
2021/09/07 10:08:14;;;;;;;8.60;4.85;;;;;;;;;;5035772;28;20137;-75
2021/09/07 10:10:44;;;;;;;7.18;5.18;;;;;;;;;;5035782;28;20033;-73
2021/09/07 10:13:15;;;;;;;7.53;6.05;;;;;;;;;;5052200;28;20052;-76
2021/09/07 10:15:46;;;;;;;7.35;4.95;;;;;;;;;;5036430;28;20494;-76
2021/09/07 10:18:32;;;;;;;7.63;5.53;;;;;;;;;;5054329;28;20067;-77
2021/09/07 10:21:07;;;;;;;12.52;5.03;;;;;;;;;;5055658;28;20063;-81
2021/09/07 10:26:36;;;;;;;7.88;4.70;;;;;;;;;;5058925;28;20047;-80
2021/09/07 10:29:02;;;;;;;;;;;;;;;;;;5051397;28;20041;-80
2021/09/07 10:31:51;;;;;;;7.80;4.78;;;;;;;;;;5060542;28;19924;-80
2021/09/07 10:34:18;;;;;;;8.75;4.90;;;;;;;;;;5057036;28;20045;-77
2021/09/07 10:37:00;;;;;;;7.82;5.25;;;;;;;;;;5058822;28;20037;-81
2021/09/07 10:39:30;;;;;;;10.70;5.28;;;;;;;;;;5040691;28;20119;-81
2021/09/07 10:41:56;;;;;;;6.88;4.90;;;;;;;;;;5060595;28;20044;-79
2021/09/07 10:44:24;;;;;;;6.65;4.88;;;;;;;;;;5058993;28;20068;-80
2021/09/07 10:46:56;;;;;;;11.30;4.72;;;;;;;;;;5059635;28;20044;-79
2021/09/07 10:49:36;;;;;;;6.97;4.70;;;;;;;;;;5041814;28;20037;-77
2021/09/07 10:52:12;;;;;;;12.05;5.00;;;;;;;;;;5037542;28;20037;-77
2021/09/07 10:55:06;;;;;;;6.80;4.72;;;;;;;;;;5057881;28;20118;-79
2021/09/07 10:57:34;;;;;;;9.27;5.97;;;;;;;;;;5040621;28;20025;-79
2021/09/07 11:00:21;;;;;;;8.88;5.50;;;;;;;;;;5041061;28;20120;-81
2021/09/07 11:02:51;;;;;;;7.00;4.63;;;;;;;;;;5057046;28;20067;-80
2021/09/07 11:05:28;;;;;;;9.45;5.18;;;;;;;;;;5057392;28;20029;-80
2021/09/07 11:08:14;;;;;;;9.30;5.70;;;;;;;;;;5064830;28;20036;-80
2021/09/07 11:10:41;;;;;;;10.13;5.05;;;;;;;;;;5081364;28;20122;-80
2021/09/07 11:13:20;;;;;;;6.85;4.65;;;;;;;;;;5064333;28;20048;-80
2021/09/07 11:15:46;;;;;;;7.47;5.10;;;;;;;;;;5063615;28;20514;-80
2021/09/07 11:18:26;;;;;;;6.38;4.80;;;;;;;;;;5080915;28;20033;-80
2021/09/07 11:20:54;;;;;;;8.23;4.88;;;;;;;;;;5081299;28;20494;-80
2021/09/07 11:23:28;;;;;;;9.25;5.45;;;;;;;;;;5082345;28;20032;-79
2021/09/07 11:25:59;;;;;;;7.63;5.35;;;;;;;;;;5064258;28;20037;-80
2021/09/07 11:28:25;;;;;;;8.35;4.90;;;;;;;;;;5063487;28;20123;-80
2021/09/07 11:30:52;;;;;;;7.32;4.70;;;;;;;;;;5064154;28;20082;-80
2021/09/07 11:33:22;;;;;;;12.35;5.00;;;;;;;;;;5080102;28;20051;-80
2021/09/07 11:35:49;;;;;;;10.30;4.53;;;;;;;;;;5080248;28;20059;-80
2021/09/07 11:38:17;;;;;;;7.25;4.90;;;;;;;;;;5058827;28;20059;-79
2021/09/07 11:40:46;;;;;;;5.97;4.25;;;;;;;;;;5023176;28;20132;-80
2021/09/07 11:43:13;;;;;;;7.22;4.70;;;;;;;;;;5040859;28;20021;-80
2021/09/07 11:45:40;;;;;;;9.85;4.65;;;;;;;;;;5023970;28;20052;-80
2021/09/07 11:48:06;;;;;;;10.57;5.18;;;;;;;;;;5055296;28;20029;-80
2021/09/07 11:50:38;;;;;;;8.00;4.82;;;;;;;;;;5043521;28;20071;-80
2021/09/07 11:53:09;;;;;;;8.93;5.22;;;;;;;;;;5043039;28;20035;-79
2021/09/07 11:55:53;;;;;;;6.10;4.82;;;;;;;;;;5060100;28;20120;-80
2021/09/07 11:58:40;;;;;;;7.03;5.00;;;;;;;;;;5043684;28;20506;-79
2021/09/07 12:01:15;;;;;;;7.70;5.40;;;;;;;;;;5043059;28;20430;-79
2021/09/07 12:03:47;;;;;;;7.30;5.65;;;;;;;;;;5059958;28;20120;-79
2021/09/07 12:06:16;;;;;;;9.07;5.22;;;;;;;;;;5043418;28;20052;-80
2021/09/07 12:08:47;;;;;;;8.48;5.55;;;;;;;;;;5043052;28;20033;-79
2021/09/07 12:11:27;;;;;;;6.22;5.00;;;;;;;;;;5060116;28;20402;-79
2021/09/07 12:14:13;;;;;;;6.50;4.85;;;;;;;;;;5060788;28;20126;-80
2021/09/07 12:16:54;;;;;;;7.78;5.53;;;;;;;;;;5042952;28;20032;-80
2021/09/07 12:19:19;;;;;;;6.68;4.07;;;;;;;;;;5058799;28;20490;-79
2021/09/07 12:21:45;;;;;;;8.23;4.32;;;;;;;;;;5058911;28;20017;-79
2021/09/07 12:24:13;;;;;;;7.78;4.88;;;;;;;;;;5058781;28;20030;-79
2021/09/07 12:26:40;;;;;;;10.40;5.05;;;;;;;;;;5032288;28;20491;-79
2021/09/07 12:29:14;;;;;;;7.30;5.22;;;;;;;;;;5037977;28;20034;-78
2021/09/07 12:31:40;;;;;;;6.47;4.30;;;;;;;;;;5039726;28;20044;-78
2021/09/07 12:34:05;;;;;;;10.95;4.88;;;;;;;;;;5021375;28;20132;-79
2021/09/07 12:36:44;;;;;;;7.68;4.82;;;;;;;;;;5037791;28;20037;-79
2021/09/07 12:39:09;;;;;;;14.27;5.93;;;;;;;;;;5021696;28;20066;-79
2021/09/07 12:41:35;;;;;;;18.67;5.80;;;;;;;;;;5036618;28;20038;-79
2021/09/07 12:44:00;;;;;;;7.55;4.90;;;;;;;;;;5038389;28;20037;-79
2021/09/07 12:46:26;;;;;;;5.32;4.25;;;;;;;;;;5021595;28;20029;-79
2021/09/07 12:48:51;;;;;;;16.30;5.78;;;;;;;;;;5038318;28;20038;-79
2021/09/07 12:51:18;;;;;;;8.13;4.72;;;;;;;;;;5038929;28;20044;-79
2021/09/07 12:53:45;;;;;;;6.50;4.60;;;;;;;;;;5039491;28;20064;-79
2021/09/07 12:56:16;;;;;;;8.07;4.53;;;;;;;;;;5039231;28;20072;-79
2021/09/07 12:58:52;;;;;;;6.57;4.30;;;;;;;;;;5038669;28;20045;-79
2021/09/07 13:01:23;;;;;;;5.65;4.10;;;;;;;;;;5021271;28;20040;-79
2021/09/07 13:03:49;;;;;;;6.65;4.72;;;;;;;;;;5054321;28;20189;-79
2021/09/07 13:06:16;;;;;;;11.48;4.57;;;;;;;;;;5037177;28;20037;-79
2021/09/07 13:08:43;;;;;;;6.05;4.22;;;;;;;;;;5022169;28;20036;-79
2021/09/07 13:11:09;;;;;;;6.10;3.90;;;;;;;;;;5021141;28;20041;-79
2021/09/07 13:13:35;;;;;;;6.25;3.97;;;;;;;;;;5038047;28;20045;-79
2021/09/07 13:16:00;;;;;;;5.72;3.90;;;;;;;;;;5037311;28;20022;-79
2021/09/07 13:18:32;;;;;;;5.50;3.85;;;;;;;;;;5037759;28;20096;-78
2021/09/07 13:20:57;;;;;;;5.43;4.30;;;;;;;;;;5037558;28;20067;-79
2021/09/07 13:23:24;;;;;;;7.97;3.88;;;;;;;;;;5038439;28;20120;-79
2021/09/07 13:25:50;;;;;;;5.85;4.05;;;;;;;;;;5052735;28;20064;-79
2021/09/07 13:28:15;;;;;;;5.70;4.22;;;;;;;;;;5060826;28;20482;-79
2021/09/07 13:30:42;;;;;;;6.38;4.00;;;;;;;;;;5078828;28;20052;-79
2021/09/07 13:33:08;;;;;;;8.43;4.03;;;;;;;;;;5060961;28;20033;-80
2021/09/07 13:35:36;;;;;;;4.82;3.80;;;;;;;;;;5077268;28;20060;-79
2021/09/07 13:38:01;;;;;;;9.23;4.25;;;;;;;;;;5077019;28;20047;-80
2021/09/07 13:40:28;;;;;;;7.97;4.15;;;;;;;;;;5047865;28;20132;-78
2021/09/07 13:42:53;;;;;;;5.82;4.32;;;;;;;;;;5040497;28;20037;-79
2021/09/07 13:45:20;;;;;;;5.35;3.75;;;;;;;;;;5058714;28;20060;-83
2021/09/07 13:47:46;;;;;;;6.38;4.00;;;;;;;;;;5042861;28;20068;-81
2021/09/07 13:50:12;;;;;;;6.28;4.15;;;;;;;;;;5059538;28;20044;-84
2021/09/07 13:52:38;;;;;;;4.78;3.58;;;;;;;;;;5044864;28;20044;-85
2021/09/07 13:55:06;;;;;;;6.07;4.05;;;;;;;;;;5044070;28;20092;-85
2021/09/07 13:57:31;;;;;;;5.97;4.28;;;;;;;;;;5060288;28;20063;-84
2021/09/07 13:59:58;;;;;;;18.15;5.90;;;;;;;;;;5043206;28;20040;-83
2021/09/07 14:02:23;;;;;;;4.60;3.70;;;;;;;;;;5043148;28;20109;-84
2021/09/07 14:04:49;;;;;;;4.85;3.63;;;;;;;;;;5060230;28;20068;-83
2021/09/07 14:07:15;;;;;;;7.18;4.30;;;;;;;;;;5060638;28;20036;-83
2021/09/07 14:09:42;;;;;;;8.35;4.22;;;;;;;;;;5058820;28;20092;-83
2021/09/07 14:12:08;;;;;;;8.90;4.68;;;;;;;;;;5041673;28;20040;-84
2021/09/07 14:14:33;;;;;;;7.47;3.60;;;;;;;;;;5042348;28;20033;-84
2021/09/07 14:16:58;;;;;;;6.60;4.30;;;;;;;;;;5042413;28;20036;-83
2021/09/07 14:19:24;;;;;;;11.00;5.15;;;;;;;;;;5042327;28;20441;-83
2021/09/07 14:21:50;;;;;;;6.93;4.10;;;;;;;;;;5042397;28;20474;-83
2021/09/07 14:24:16;;;;;;;13.50;4.05;;;;;;;;;;5058857;28;20476;-83
2021/09/07 14:26:41;;;;;;;6.93;3.47;;;;;;;;;;5058417;28;20090;-83
2021/09/07 14:29:07;;;;;;;8.55;3.72;;;;;;;;;;5041847;28;20123;-83
2021/09/07 14:31:35;;;;;;;11.23;3.92;;;;;;;;;;5041958;28;20104;-83
2021/09/07 14:34:01;;;;;;;7.20;3.60;;;;;;;;;;5041830;28;20049;-84
2021/09/07 14:36:28;;;;;;;11.50;3.80;;;;;;;;;;5041372;28;20048;-83